Time;durP1;ratioP1;P1;durP2;ratioP2;P2;SDS_P1;SDS_P2;PMS_P1;PMS_P2;Temp;Humidity;BMP_temperature;BMP_pressure;BME280_temperature;BME280_humidity;BME280_pressure;Samples;Min_cycle;Max_cycle;Signal;HPM_P1;HPM_P2
2022/09/24 00:00:16;;;;;;;17.73;13.37;;;;;;;;;;751779;183;1844563;-55
2022/09/24 00:02:42;;;;;;;18.00;11.03;;;;;;;;;;762653;183;815649;-55
2022/09/24 00:05:08;;;;;;;16.00;12.07;;;;;;;;;;755395;183;920161;-55
2022/09/24 00:07:34;;;;;;;15.47;11.27;;;;;;;;;;755314;183;917794;-55
2022/09/24 00:10:01;;;;;;;16.20;11.53;;;;;;;;;;760339;183;919753;-55
2022/09/24 00:12:26;;;;;;;15.40;10.20;;;;;;;;;;755088;183;831521;-55
2022/09/24 00:14:52;;;;;;;15.00;10.43;;;;;;;;;;756222;183;922702;-55
2022/09/24 00:17:18;;;;;;;15.13;11.30;;;;;;;;;;759789;183;919424;-55
2022/09/24 00:19:43;;;;;;;17.90;11.43;;;;;;;;;;758878;183;923422;-55
2022/09/24 00:22:09;;;;;;;15.33;11.33;;;;;;;;;;756394;183;919799;-55
2022/09/24 00:27:07;;;;;;;14.17;10.33;;;;;;;;;;770842;179;913580;-54
2022/09/24 00:29:34;;;;;;;22.62;12.88;;;;;;;;;;772786;180;938617;-55
2022/09/24 00:31:59;;;;;;;16.80;13.00;;;;;;;;;;775408;180;818232;-54
2022/09/24 00:34:24;;;;;;;16.53;11.93;;;;;;;;;;761114;182;920118;-55
2022/09/24 00:36:51;;;;;;;18.60;12.90;;;;;;;;;;764794;180;803882;-54
2022/09/24 00:39:16;;;;;;;18.60;13.70;;;;;;;;;;757846;183;919260;-54
2022/09/24 00:41:47;;;;;;;16.47;12.37;;;;;;;;;;757165;183;914116;-54
2022/09/24 00:44:15;;;;;;;16.53;13.53;;;;;;;;;;762047;183;917405;-54
2022/09/24 00:46:40;;;;;;;20.47;12.77;;;;;;;;;;761456;182;919440;-55
2022/09/24 00:49:12;;;;;;;19.03;13.90;;;;;;;;;;769139;180;920193;-55
2022/09/24 00:51:38;;;;;;;16.80;12.67;;;;;;;;;;754114;183;917968;-55
2022/09/24 00:54:04;;;;;;;21.70;13.70;;;;;;;;;;764142;183;813820;-55
2022/09/24 00:56:30;;;;;;;18.90;12.43;;;;;;;;;;756213;183;881463;-55
2022/09/24 00:58:55;;;;;;;17.53;13.50;;;;;;;;;;757501;183;918999;-55
2022/09/24 01:01:21;;;;;;;16.27;11.10;;;;;;;;;;760638;183;919473;-55
2022/09/24 01:03:48;;;;;;;16.60;10.70;;;;;;;;;;757723;183;843384;-55
2022/09/24 01:06:13;;;;;;;13.83;10.00;;;;;;;;;;756330;183;935244;-55
2022/09/24 01:08:39;;;;;;;17.37;12.23;;;;;;;;;;758280;183;1022369;-55
2022/09/24 01:11:10;;;;;;;16.90;12.30;;;;;;;;;;757166;184;918054;-55
2022/09/24 01:13:39;;;;;;;16.37;11.43;;;;;;;;;;746356;181;918732;-54
2022/09/24 01:16:03;;;;;;;15.33;11.30;;;;;;;;;;741153;186;925283;-54
2022/09/24 01:18:32;;;;;;;15.07;9.80;;;;;;;;;;745905;187;816301;-54
2022/09/24 01:20:58;;;;;;;17.20;11.47;;;;;;;;;;740005;187;918950;-54
2022/09/24 01:23:40;;;;;;;15.60;10.40;;;;;;;;;;740947;188;904129;-54
2022/09/24 01:26:18;;;;;;;15.13;10.70;;;;;;;;;;745069;184;817362;-54
2022/09/24 01:28:57;;;;;;;19.40;10.30;;;;;;;;;;745136;187;919430;-54
2022/09/24 01:31:25;;;;;;;14.38;10.77;;;;;;;;;;739235;187;919840;-54
2022/09/24 01:33:52;;;;;;;17.40;10.70;;;;;;;;;;745070;187;919269;-54
2022/09/24 01:36:16;;;;;;;14.77;10.17;;;;;;;;;;738780;188;919624;-54
2022/09/24 01:38:43;;;;;;;19.03;11.33;;;;;;;;;;742513;187;919837;-54
2022/09/24 01:41:08;;;;;;;15.80;10.70;;;;;;;;;;742091;187;919062;-54
2022/09/24 01:43:34;;;;;;;16.77;10.90;;;;;;;;;;744452;187;914449;-54
2022/09/24 01:46:00;;;;;;;15.67;10.23;;;;;;;;;;737109;187;918986;-54
2022/09/24 01:48:26;;;;;;;14.90;10.60;;;;;;;;;;770854;178;919590;-54
2022/09/24 01:50:52;;;;;;;11.77;10.13;;;;;;;;;;775632;181;918322;-54
2022/09/24 01:53:19;;;;;;;15.40;10.43;;;;;;;;;;763415;183;920678;-54
2022/09/24 01:55:47;;;;;;;17.20;11.97;;;;;;;;;;753460;184;816817;-54
2022/09/24 01:58:11;;;;;;;17.13;11.30;;;;;;;;;;762188;183;814040;-54
2022/09/24 02:00:37;;;;;;;16.97;12.47;;;;;;;;;;762658;183;817457;-54
2022/09/24 02:03:07;;;;;;;17.33;11.53;;;;;;;;;;757785;183;918448;-54
2022/09/24 02:05:34;;;;;;;18.57;11.20;;;;;;;;;;754406;183;919675;-54
2022/09/24 02:08:07;;;;;;;17.80;11.83;;;;;;;;;;759080;184;855229;-54
2022/09/24 02:10:31;;;;;;;18.77;12.53;;;;;;;;;;760420;183;818090;-54
2022/09/24 02:12:57;;;;;;;19.90;12.23;;;;;;;;;;753816;183;918357;-54
2022/09/24 02:15:24;;;;;;;18.67;12.63;;;;;;;;;;756918;183;920375;-54
2022/09/24 02:17:49;;;;;;;21.67;12.93;;;;;;;;;;765222;180;860660;-54
2022/09/24 02:20:15;;;;;;;20.60;12.40;;;;;;;;;;762699;180;920497;-54
2022/09/24 02:22:41;;;;;;;19.27;13.13;;;;;;;;;;768350;179;917075;-54
2022/09/24 02:25:08;;;;;;;16.73;12.40;;;;;;;;;;771613;180;920390;-54
2022/09/24 02:27:34;;;;;;;16.77;12.40;;;;;;;;;;765658;180;919335;-54
2022/09/24 02:29:59;;;;;;;16.87;12.90;;;;;;;;;;763508;183;920148;-54
2022/09/24 02:32:27;;;;;;;21.80;12.40;;;;;;;;;;761551;184;901001;-54
2022/09/24 02:34:53;;;;;;;16.87;12.40;;;;;;;;;;753715;183;919412;-54
2022/09/24 02:37:19;;;;;;;15.33;11.97;;;;;;;;;;769551;179;919381;-54
2022/09/24 02:39:45;;;;;;;17.23;12.40;;;;;;;;;;758898;182;920782;-55
2022/09/24 02:42:10;;;;;;;20.30;12.83;;;;;;;;;;758917;184;918745;-54
2022/09/24 02:44:36;;;;;;;18.87;12.70;;;;;;;;;;758960;182;919376;-55
2022/09/24 02:47:02;;;;;;;21.90;13.83;;;;;;;;;;761857;181;918203;-54
2022/09/24 02:49:28;;;;;;;18.90;14.80;;;;;;;;;;778332;177;920551;-54
2022/09/24 02:51:54;;;;;;;18.20;13.00;;;;;;;;;;768322;181;818103;-54
2022/09/24 02:54:20;;;;;;;14.03;11.67;;;;;;;;;;766710;182;819895;-54
2022/09/24 02:56:46;;;;;;;20.10;13.97;;;;;;;;;;768713;183;919987;-54
2022/09/24 02:59:11;;;;;;;19.97;13.87;;;;;;;;;;762940;183;920215;-54
2022/09/24 03:01:37;;;;;;;19.58;13.68;;;;;;;;;;769541;180;920063;-55
2022/09/24 03:04:03;;;;;;;20.33;13.57;;;;;;;;;;766250;183;919228;-54
2022/09/24 03:06:29;;;;;;;21.57;14.40;;;;;;;;;;761965;183;919905;-54
2022/09/24 03:08:55;;;;;;;18.93;13.93;;;;;;;;;;759773;183;918943;-55
2022/09/24 03:11:21;;;;;;;20.03;13.87;;;;;;;;;;756763;183;1021686;-55
2022/09/24 03:13:46;;;;;;;19.60;12.67;;;;;;;;;;759866;183;916710;-54
2022/09/24 03:16:12;;;;;;;16.03;11.63;;;;;;;;;;754119;183;917338;-55
2022/09/24 03:18:38;;;;;;;18.43;13.00;;;;;;;;;;755339;183;919893;-54
2022/09/24 03:21:04;;;;;;;17.90;12.60;;;;;;;;;;763175;183;920109;-54
2022/09/24 03:23:30;;;;;;;19.23;13.63;;;;;;;;;;755086;184;921019;-54
2022/09/24 03:25:56;;;;;;;17.90;13.83;;;;;;;;;;760177;183;915641;-55
2022/09/24 03:28:22;;;;;;;19.70;13.50;;;;;;;;;;763260;183;918999;-54
2022/09/24 03:33:19;;;;;;;18.27;14.00;;;;;;;;;;762052;183;921727;-54
2022/09/24 03:35:45;;;;;;;18.77;13.73;;;;;;;;;;765837;181;820085;-55
2022/09/24 03:38:11;;;;;;;21.00;13.23;;;;;;;;;;762964;184;919586;-54
2022/09/24 03:40:37;;;;;;;20.93;12.93;;;;;;;;;;758237;183;919112;-54
2022/09/24 03:43:03;;;;;;;17.80;13.17;;;;;;;;;;758648;183;918548;-55
2022/09/24 03:45:28;;;;;;;19.37;13.77;;;;;;;;;;765330;183;816979;-54
2022/09/24 03:47:54;;;;;;;19.43;12.87;;;;;;;;;;758603;182;917863;-54
2022/09/24 03:50:20;;;;;;;17.67;13.00;;;;;;;;;;774768;180;918337;-54
2022/09/24 03:52:46;;;;;;;19.10;13.63;;;;;;;;;;775260;180;919921;-55
2022/09/24 03:55:12;;;;;;;20.07;13.47;;;;;;;;;;768008;180;918723;-55
2022/09/24 03:57:38;;;;;;;15.85;11.80;;;;;;;;;;754111;183;920598;-55
2022/09/24 04:00:04;;;;;;;18.13;13.43;;;;;;;;;;757423;184;919194;-54
2022/09/24 04:02:30;;;;;;;18.93;13.47;;;;;;;;;;763431;183;848430;-54
2022/09/24 04:04:56;;;;;;;18.50;13.97;;;;;;;;;;760179;183;922671;-54
2022/09/24 04:07:22;;;;;;;18.13;12.77;;;;;;;;;;754379;181;919136;-55
2022/09/24 04:09:48;;;;;;;18.20;13.37;;;;;;;;;;763737;183;887542;-54
2022/09/24 04:12:14;;;;;;;31.07;14.80;;;;;;;;;;752807;184;918362;-54
2022/09/24 04:14:39;;;;;;;14.27;11.65;;;;;;;;;;757837;184;918642;-54
2022/09/24 04:17:05;;;;;;;17.17;11.87;;;;;;;;;;765238;183;919455;-55
2022/09/24 04:19:32;;;;;;;18.63;12.63;;;;;;;;;;756570;184;919684;-54
2022/09/24 04:21:57;;;;;;;18.47;12.60;;;;;;;;;;758735;184;919545;-54
2022/09/24 04:24:23;;;;;;;21.10;13.83;;;;;;;;;;765253;178;1019386;-54
2022/09/24 04:26:49;;;;;;;18.23;11.80;;;;;;;;;;771234;183;818758;-54
2022/09/24 04:29:15;;;;;;;16.00;12.00;;;;;;;;;;758067;183;816671;-54
2022/09/24 04:31:40;;;;;;;19.20;13.13;;;;;;;;;;755635;183;916072;-55
2022/09/24 04:34:06;;;;;;;19.63;12.50;;;;;;;;;;762298;183;920615;-54
2022/09/24 04:36:32;;;;;;;17.67;12.67;;;;;;;;;;751984;183;919134;-54
2022/09/24 04:38:58;;;;;;;26.70;14.67;;;;;;;;;;756473;184;919296;-54
2022/09/24 04:41:24;;;;;;;23.20;14.10;;;;;;;;;;762430;183;921738;-54
2022/09/24 04:43:50;;;;;;;17.97;13.70;;;;;;;;;;769616;182;817579;-54
2022/09/24 04:46:17;;;;;;;25.90;18.20;;;;;;;;;;755248;183;817523;-54
2022/09/24 04:48:42;;;;;;;17.35;12.93;;;;;;;;;;757046;183;919521;-54
2022/09/24 04:51:08;;;;;;;26.80;17.13;;;;;;;;;;762403;184;796091;-54
2022/09/24 04:53:34;;;;;;;27.23;17.70;;;;;;;;;;759838;183;916920;-55
2022/09/24 04:55:59;;;;;;;22.03;14.70;;;;;;;;;;757050;183;920609;-54
2022/09/24 04:58:26;;;;;;;24.40;18.77;;;;;;;;;;759987;184;818779;-54
2022/09/24 05:00:52;;;;;;;37.43;22.60;;;;;;;;;;760204;183;808930;-54
2022/09/24 05:03:19;;;;;;;34.77;21.53;;;;;;;;;;756226;183;934549;-54
2022/09/24 05:05:44;;;;;;;32.53;20.30;;;;;;;;;;764238;183;920113;-54
2022/09/24 05:08:09;;;;;;;29.30;18.80;;;;;;;;;;757703;183;918787;-54
2022/09/24 05:10:35;;;;;;;31.07;17.53;;;;;;;;;;758230;183;817369;-54
2022/09/24 05:13:01;;;;;;;27.10;16.73;;;;;;;;;;758528;183;920548;-54
2022/09/24 05:15:27;;;;;;;25.13;16.03;;;;;;;;;;760723;183;919721;-54
2022/09/24 05:17:53;;;;;;;26.07;16.27;;;;;;;;;;756280;183;916742;-55
2022/09/24 05:20:19;;;;;;;29.07;15.20;;;;;;;;;;757518;183;817077;-54
2022/09/24 05:22:45;;;;;;;26.60;17.90;;;;;;;;;;762668;183;816885;-53
2022/09/24 05:25:11;;;;;;;23.53;14.70;;;;;;;;;;759353;183;814646;-54
2022/09/24 05:27:36;;;;;;;21.17;15.50;;;;;;;;;;755512;184;919152;-54
2022/09/24 05:30:02;;;;;;;24.50;14.80;;;;;;;;;;761956;183;919523;-54
2022/09/24 05:32:28;;;;;;;25.13;15.53;;;;;;;;;;756136;183;923012;-54
2022/09/24 05:34:54;;;;;;;24.40;15.47;;;;;;;;;;761877;183;919227;-54
2022/09/24 05:37:20;;;;;;;29.80;18.17;;;;;;;;;;758198;183;919823;-54
2022/09/24 05:39:46;;;;;;;19.67;13.83;;;;;;;;;;761676;183;919846;-54
2022/09/24 05:42:13;;;;;;;38.07;19.27;;;;;;;;;;754479;183;915959;-53
2022/09/24 05:44:38;;;;;;;25.10;15.97;;;;;;;;;;755865;183;919567;-54
2022/09/24 05:47:04;;;;;;;29.37;16.60;;;;;;;;;;759411;183;823444;-54
2022/09/24 05:49:30;;;;;;;18.53;14.20;;;;;;;;;;757195;183;919312;-53
2022/09/24 05:51:56;;;;;;;23.17;16.50;;;;;;;;;;755529;183;918253;-54
2022/09/24 05:54:22;;;;;;;28.47;18.57;;;;;;;;;;759274;183;919853;-53
2022/09/24 05:56:48;;;;;;;29.47;20.67;;;;;;;;;;755492;183;919536;-54
2022/09/24 05:59:13;;;;;;;39.33;24.10;;;;;;;;;;757805;183;819827;-53
2022/09/24 06:01:39;;;;;;;29.70;19.77;;;;;;;;;;756167;181;918469;-55
2022/09/24 06:04:05;;;;;;;25.17;20.33;;;;;;;;;;764953;182;815992;-53
2022/09/24 06:06:31;;;;;;;23.50;18.10;;;;;;;;;;756187;183;920023;-54
2022/09/24 06:08:57;;;;;;;46.30;26.50;;;;;;;;;;757641;183;921358;-54
2022/09/24 06:11:23;;;;;;;48.80;29.80;;;;;;;;;;762087;181;917217;-54
2022/09/24 06:13:49;;;;;;;35.37;22.93;;;;;;;;;;758962;183;922745;-54
2022/09/24 06:16:14;;;;;;;44.07;25.23;;;;;;;;;;755480;183;816992;-53
2022/09/24 06:18:40;;;;;;;25.75;16.87;;;;;;;;;;764341;183;919666;-54
2022/09/24 06:21:06;;;;;;;21.50;15.90;;;;;;;;;;756738;183;917860;-54
2022/09/24 06:23:32;;;;;;;20.53;14.83;;;;;;;;;;756893;183;918318;-54
2022/09/24 06:25:58;;;;;;;22.48;17.23;;;;;;;;;;759079;183;920370;-54
2022/09/24 06:28:24;;;;;;;23.70;15.60;;;;;;;;;;760648;183;936208;-54
2022/09/24 06:30:50;;;;;;;18.70;14.77;;;;;;;;;;755893;183;922683;-54
2022/09/24 06:33:16;;;;;;;24.37;16.40;;;;;;;;;;765243;179;919755;-54
2022/09/24 06:35:41;;;;;;;22.90;16.53;;;;;;;;;;763280;183;919736;-54
2022/09/24 06:38:07;;;;;;;25.27;20.23;;;;;;;;;;756207;183;922875;-54
2022/09/24 06:40:33;;;;;;;21.43;14.90;;;;;;;;;;757478;183;917511;-54
2022/09/24 06:42:59;;;;;;;47.03;31.57;;;;;;;;;;761601;183;920672;-54
2022/09/24 06:45:25;;;;;;;50.80;35.15;;;;;;;;;;755102;183;924158;-55
2022/09/24 06:47:54;;;;;;;23.13;16.23;;;;;;;;;;757170;183;852518;-54
2022/09/24 06:50:19;;;;;;;31.67;26.77;;;;;;;;;;757001;183;826074;-54
2022/09/24 06:52:45;;;;;;;21.60;17.77;;;;;;;;;;771883;180;817182;-54
2022/09/24 06:55:11;;;;;;;28.63;21.23;;;;;;;;;;769898;180;922521;-54
2022/09/24 06:57:37;;;;;;;24.80;20.07;;;;;;;;;;758183;183;859735;-53
2022/09/24 07:00:03;;;;;;;23.63;15.90;;;;;;;;;;760058;184;817139;-54
2022/09/24 07:02:30;;;;;;;18.27;13.83;;;;;;;;;;759813;184;629586;-53
2022/09/24 07:04:55;;;;;;;20.37;14.87;;;;;;;;;;763460;183;615427;-53
2022/09/24 07:09:52;;;;;;;15.50;11.80;;;;;;;;;;775588;180;811172;-54
2022/09/24 07:12:18;;;;;;;24.33;14.90;;;;;;;;;;765756;180;815756;-54
2022/09/24 07:14:44;;;;;;;20.20;13.00;;;;;;;;;;759575;183;817408;-53
2022/09/24 07:17:10;;;;;;;16.10;11.30;;;;;;;;;;767472;183;819043;-54
2022/09/24 07:19:37;;;;;;;20.23;14.90;;;;;;;;;;756778;183;917925;-53
2022/09/24 07:22:01;;;;;;;15.07;12.00;;;;;;;;;;759573;183;816657;-53
2022/09/24 07:24:27;;;;;;;18.83;12.80;;;;;;;;;;764841;182;825461;-54
2022/09/24 07:26:53;;;;;;;29.80;17.67;;;;;;;;;;758334;183;920464;-53
2022/09/24 07:29:19;;;;;;;81.85;42.45;;;;;;;;;;760328;183;922732;-53
2022/09/24 07:31:45;;;;;;;23.60;15.07;;;;;;;;;;765640;183;918737;-54
2022/09/24 07:34:11;;;;;;;24.13;14.40;;;;;;;;;;760523;183;927605;-53
2022/09/24 07:36:36;;;;;;;13.17;10.27;;;;;;;;;;760010;183;923435;-54
2022/09/24 07:39:02;;;;;;;55.83;29.63;;;;;;;;;;758578;183;914053;-53
2022/09/24 07:41:28;;;;;;;26.10;15.20;;;;;;;;;;767360;180;818759;-53
2022/09/24 07:43:54;;;;;;;31.07;16.40;;;;;;;;;;772790;180;922163;-53
2022/09/24 07:46:20;;;;;;;19.00;12.63;;;;;;;;;;761495;183;918878;-53
2022/09/24 07:48:48;;;;;;;22.93;12.30;;;;;;;;;;767386;183;816753;-54
2022/09/24 07:51:12;;;;;;;28.87;15.67;;;;;;;;;;758925;183;815528;-53
2022/09/24 07:53:37;;;;;;;22.03;13.93;;;;;;;;;;756521;184;916295;-53
2022/09/24 07:56:03;;;;;;;20.05;13.02;;;;;;;;;;761404;183;919036;-54
2022/09/24 07:58:29;;;;;;;14.60;9.97;;;;;;;;;;756085;184;830106;-54
2022/09/24 08:00:56;;;;;;;14.13;9.50;;;;;;;;;;756906;183;817489;-53
2022/09/24 08:03:22;;;;;;;11.50;7.70;;;;;;;;;;756070;183;920609;-53
2022/09/24 08:05:48;;;;;;;11.10;7.73;;;;;;;;;;761518;183;935929;-54
2022/09/24 08:08:14;;;;;;;9.53;8.07;;;;;;;;;;757337;183;918749;-54
2022/09/24 08:10:40;;;;;;;22.17;14.27;;;;;;;;;;752671;183;922533;-53
2022/09/24 08:13:05;;;;;;;9.37;7.10;;;;;;;;;;761591;183;817155;-54
2022/09/24 08:15:31;;;;;;;13.60;8.40;;;;;;;;;;757814;183;915438;-54
2022/09/24 08:18:02;;;;;;;11.50;8.07;;;;;;;;;;754095;183;912535;-54
2022/09/24 08:20:27;;;;;;;15.07;11.12;;;;;;;;;;759836;183;931584;-55
2022/09/24 08:22:53;;;;;;;10.23;8.37;;;;;;;;;;744763;184;921383;-54
2022/09/24 08:25:18;;;;;;;9.47;6.33;;;;;;;;;;760482;178;919858;-54
2022/09/24 08:27:44;;;;;;;12.07;7.57;;;;;;;;;;767351;180;919455;-53
2022/09/24 08:30:11;;;;;;;9.87;7.60;;;;;;;;;;768335;181;920300;-54
2022/09/24 08:32:36;;;;;;;12.63;8.20;;;;;;;;;;755778;183;816406;-54
2022/09/24 08:35:02;;;;;;;10.10;7.20;;;;;;;;;;756196;182;924197;-54
2022/09/24 08:37:28;;;;;;;9.57;6.33;;;;;;;;;;764488;183;727088;-54
2022/09/24 08:39:54;;;;;;;8.80;6.13;;;;;;;;;;759347;183;820447;-54
2022/09/24 08:42:20;;;;;;;9.00;6.30;;;;;;;;;;761804;183;840540;-53
2022/09/24 08:47:36;;;;;;;9.97;6.00;;;;;;;;;;762084;183;908960;-54
2022/09/24 08:50:08;;;;;;;15.33;6.90;;;;;;;;;;760042;183;827119;-54
2022/09/24 08:52:36;;;;;;;6.10;4.33;;;;;;;;;;760938;183;813340;-54
2022/09/24 08:55:03;;;;;;;5.80;4.37;;;;;;;;;;757910;183;920266;-54
2022/09/24 08:57:29;;;;;;;7.63;4.00;;;;;;;;;;755933;183;910533;-55
2022/09/24 08:59:55;;;;;;;5.53;3.83;;;;;;;;;;760903;183;923799;-54
2022/09/24 09:02:22;;;;;;;7.07;4.90;;;;;;;;;;756742;184;917343;-55
2022/09/24 09:04:53;;;;;;;9.90;4.37;;;;;;;;;;760084;183;715978;-54
2022/09/24 09:07:18;;;;;;;20.03;5.97;;;;;;;;;;764297;183;613646;-54
2022/09/24 09:09:44;;;;;;;8.00;5.73;;;;;;;;;;752108;183;629390;-55
2022/09/24 09:12:11;;;;;;;8.77;4.77;;;;;;;;;;773048;180;621335;-54
2022/09/24 09:14:39;;;;;;;10.13;5.80;;;;;;;;;;758412;183;716223;-54
2022/09/24 09:17:05;;;;;;;7.93;4.60;;;;;;;;;;761319;183;803415;-53
2022/09/24 09:19:31;;;;;;;5.30;3.87;;;;;;;;;;756414;183;861006;-56
2022/09/24 09:21:56;;;;;;;7.63;4.37;;;;;;;;;;758498;183;811410;-55
2022/09/24 09:24:24;;;;;;;6.30;4.70;;;;;;;;;;760708;183;917746;-54
2022/09/24 09:26:50;;;;;;;8.30;5.47;;;;;;;;;;755114;184;919540;-55
2022/09/24 09:29:16;;;;;;;7.07;4.30;;;;;;;;;;753621;183;868759;-54
2022/09/24 09:31:57;;;;;;;6.60;4.00;;;;;;;;;;754761;183;919597;-54
2022/09/24 09:34:28;;;;;;;5.60;4.30;;;;;;;;;;735664;183;919888;-55
2022/09/24 09:36:56;;;;;;;4.47;3.50;;;;;;;;;;750779;187;919241;-55
2022/09/24 09:39:27;;;;;;;5.97;4.13;;;;;;;;;;765231;178;939540;-54
2022/09/24 09:41:54;;;;;;;7.40;5.23;;;;;;;;;;768373;177;902477;-55
2022/09/24 09:44:21;;;;;;;7.20;4.60;;;;;;;;;;764486;182;919341;-54
2022/09/24 09:46:48;;;;;;;8.93;3.80;;;;;;;;;;772083;181;717501;-54
2022/09/24 09:49:14;;;;;;;6.10;4.30;;;;;;;;;;760513;183;919073;-55
2022/09/24 09:51:40;;;;;;;6.77;4.23;;;;;;;;;;756160;183;921750;-55
2022/09/24 09:54:06;;;;;;;7.43;3.77;;;;;;;;;;761673;183;822057;-55
2022/09/24 09:56:33;;;;;;;5.87;4.23;;;;;;;;;;756572;183;918472;-55
2022/09/24 09:59:01;;;;;;;5.27;3.87;;;;;;;;;;770692;178;815517;-55
2022/09/24 10:01:30;;;;;;;5.23;3.97;;;;;;;;;;759958;183;806807;-55
2022/09/24 10:03:56;;;;;;;7.43;5.37;;;;;;;;;;761116;183;934979;-54
2022/09/24 10:06:23;;;;;;;6.03;3.73;;;;;;;;;;758438;183;719156;-55
2022/09/24 10:08:49;;;;;;;6.43;4.37;;;;;;;;;;757953;183;820358;-55
2022/09/24 10:11:14;;;;;;;7.93;4.40;;;;;;;;;;763993;183;659760;-55
2022/09/24 10:13:40;;;;;;;6.47;4.30;;;;;;;;;;755363;183;895297;-55
2022/09/24 10:16:06;;;;;;;10.00;5.43;;;;;;;;;;757039;183;886959;-54
2022/09/24 10:18:33;;;;;;;6.60;4.75;;;;;;;;;;760478;183;844671;-56
2022/09/24 10:21:00;;;;;;;6.57;4.07;;;;;;;;;;769849;180;915500;-55
2022/09/24 10:23:25;;;;;;;9.00;3.93;;;;;;;;;;771533;179;819681;-55
2022/09/24 10:25:50;;;;;;;5.60;4.03;;;;;;;;;;757416;183;818660;-55
2022/09/24 10:31:00;;;;;;;9.90;4.10;;;;;;;;;;763058;181;624663;-55
2022/09/24 10:33:26;;;;;;;4.07;3.53;;;;;;;;;;760729;183;919725;-56
2022/09/24 10:35:52;;;;;;;5.40;3.57;;;;;;;;;;757745;182;826329;-58
2022/09/24 10:38:18;;;;;;;6.60;3.40;;;;;;;;;;760952;183;920501;-55
2022/09/24 10:40:44;;;;;;;4.60;3.53;;;;;;;;;;758954;183;816410;-56
2022/09/24 10:43:09;;;;;;;5.90;3.60;;;;;;;;;;758970;183;915548;-56
2022/09/24 10:45:39;;;;;;;11.67;4.40;;;;;;;;;;757500;183;813598;-57
2022/09/24 10:48:07;;;;;;;6.10;3.57;;;;;;;;;;778104;180;609262;-56
2022/09/24 10:50:31;;;;;;;4.80;3.60;;;;;;;;;;774661;177;634003;-56
2022/09/24 10:52:56;;;;;;;19.70;8.37;;;;;;;;;;768820;180;784545;-57
2022/09/24 10:55:28;;;;;;;6.97;4.03;;;;;;;;;;759620;184;716809;-56
2022/09/24 10:57:55;;;;;;;4.10;3.20;;;;;;;;;;755109;182;923595;-56
2022/09/24 11:00:21;;;;;;;5.13;3.17;;;;;;;;;;755848;183;919811;-57
2022/09/24 11:02:49;;;;;;;10.70;4.90;;;;;;;;;;759647;183;919406;-57
2022/09/24 11:05:18;;;;;;;4.00;2.70;;;;;;;;;;762148;183;913966;-56
2022/09/24 11:07:44;;;;;;;4.10;2.87;;;;;;;;;;755830;183;913170;-56
2022/09/24 11:10:13;;;;;;;4.83;3.17;;;;;;;;;;763099;180;919999;-56
2022/09/24 11:12:49;;;;;;;51.57;14.93;;;;;;;;;;767373;178;915396;-56
2022/09/24 11:15:18;;;;;;;5.47;3.83;;;;;;;;;;759238;184;915747;-56
2022/09/24 11:17:47;;;;;;;5.63;4.23;;;;;;;;;;759656;183;827116;-56
2022/09/24 11:20:16;;;;;;;7.57;4.67;;;;;;;;;;758962;183;919179;-56
2022/09/24 11:22:48;;;;;;;6.83;4.80;;;;;;;;;;757445;183;1258297;-56
2022/09/24 11:25:14;;;;;;;9.63;4.90;;;;;;;;;;763235;183;918675;-57
2022/09/24 11:27:40;;;;;;;10.00;4.50;;;;;;;;;;757844;182;919266;-56
2022/09/24 11:30:08;;;;;;;22.70;7.57;;;;;;;;;;754133;183;919115;-56
2022/09/24 11:32:36;;;;;;;9.93;5.30;;;;;;;;;;760228;183;921463;-57
2022/09/24 11:35:18;;;;;;;6.83;4.53;;;;;;;;;;757191;183;911524;-56
2022/09/24 11:37:45;;;;;;;6.80;5.50;;;;;;;;;;775890;180;783520;-56
2022/09/24 11:40:13;;;;;;;7.93;5.70;;;;;;;;;;762664;180;917502;-55
2022/09/24 11:42:42;;;;;;;12.77;7.10;;;;;;;;;;759737;183;919493;-56
2022/09/24 11:45:26;;;;;;;9.80;5.20;;;;;;;;;;760245;183;919135;-56
2022/09/24 11:48:06;;;;;;;6.13;4.60;;;;;;;;;;743399;184;922003;-56
2022/09/24 11:50:32;;;;;;;14.87;6.40;;;;;;;;;;754875;183;915675;-56
2022/09/24 11:52:59;;;;;;;6.07;3.97;;;;;;;;;;759797;183;914990;-55
2022/09/24 11:55:25;;;;;;;5.53;3.80;;;;;;;;;;759429;183;894575;-56
2022/09/24 11:57:53;;;;;;;6.47;4.40;;;;;;;;;;759004;183;915156;-55
2022/09/24 12:00:19;;;;;;;15.17;7.00;;;;;;;;;;758891;183;919324;-56
2022/09/24 12:02:47;;;;;;;8.03;5.07;;;;;;;;;;759254;183;921239;-56
2022/09/24 12:05:18;;;;;;;4.90;3.47;;;;;;;;;;756521;183;919446;-56
2022/09/24 12:07:43;;;;;;;6.17;3.90;;;;;;;;;;758293;180;919058;-55
2022/09/24 12:10:28;;;;;;;6.13;3.87;;;;;;;;;;775339;179;878498;-55
2022/09/24 12:12:53;;;;;;;4.00;3.27;;;;;;;;;;764285;182;921590;-56
2022/09/24 12:15:22;;;;;;;4.70;2.90;;;;;;;;;;760772;183;914407;-55
2022/09/24 12:17:50;;;;;;;6.20;3.47;;;;;;;;;;756985;183;921975;-56
2022/09/24 12:20:20;;;;;;;4.77;3.90;;;;;;;;;;758075;183;919524;-56
2022/09/24 12:22:47;;;;;;;5.43;3.30;;;;;;;;;;760230;183;926282;-56
2022/09/24 12:25:12;;;;;;;5.73;3.93;;;;;;;;;;759698;184;867246;-56
2022/09/24 12:27:38;;;;;;;4.33;3.50;;;;;;;;;;757240;184;919279;-56
2022/09/24 12:35:11;;;;;;;5.10;4.43;;;;;;;;;;764648;181;918500;-57
2022/09/24 12:37:37;;;;;;;5.73;3.93;;;;;;;;;;772399;177;818235;-56
2022/09/24 12:40:17;;;;;;;5.53;4.83;;;;;;;;;;773052;180;889609;-56
2022/09/24 12:42:44;;;;;;;5.47;4.03;;;;;;;;;;763555;183;914385;-56
2022/09/24 12:45:11;;;;;;;6.20;4.30;;;;;;;;;;756166;183;924574;-56
2022/09/24 12:47:36;;;;;;;6.93;3.80;;;;;;;;;;754536;183;902246;-56
2022/09/24 12:50:03;;;;;;;5.67;4.13;;;;;;;;;;758812;183;809390;-56
2022/09/24 12:52:34;;;;;;;5.30;4.33;;;;;;;;;;760198;184;919379;-57
2022/09/24 12:55:01;;;;;;;5.30;4.13;;;;;;;;;;757449;183;934179;-56
2022/09/24 12:57:26;;;;;;;9.33;4.80;;;;;;;;;;757777;183;918657;-56
2022/09/24 12:59:51;;;;;;;5.77;4.20;;;;;;;;;;762801;183;919232;-57
2022/09/24 13:02:18;;;;;;;5.47;3.77;;;;;;;;;;754796;183;915314;-57
2022/09/24 13:04:44;;;;;;;5.13;3.70;;;;;;;;;;754270;183;913214;-57
2022/09/24 13:07:16;;;;;;;6.20;4.47;;;;;;;;;;754365;184;921165;-57
2022/09/24 13:09:43;;;;;;;6.20;4.10;;;;;;;;;;763216;184;818850;-56
2022/09/24 13:12:20;;;;;;;5.70;3.90;;;;;;;;;;758806;183;813292;-58
2022/09/24 13:14:48;;;;;;;9.10;4.03;;;;;;;;;;755421;183;919058;-58
2022/09/24 13:17:12;;;;;;;5.50;4.17;;;;;;;;;;754881;183;916115;-65
2022/09/24 13:19:39;;;;;;;5.30;4.17;;;;;;;;;;761324;183;919256;-66
2022/09/24 13:22:04;;;;;;;5.67;3.43;;;;;;;;;;759590;183;915901;-65
2022/09/24 13:24:33;;;;;;;8.50;4.53;;;;;;;;;;759225;183;918578;-65
2022/09/24 13:27:03;;;;;;;6.00;4.00;;;;;;;;;;761446;183;916882;-58
2022/09/24 13:29:29;;;;;;;4.83;3.57;;;;;;;;;;763617;183;788989;-57
2022/09/24 13:31:56;;;;;;;5.37;3.57;;;;;;;;;;760195;183;919673;-56
2022/09/24 13:34:21;;;;;;;9.57;4.00;;;;;;;;;;758488;183;912837;-57
2022/09/24 13:36:54;;;;;;;6.83;4.47;;;;;;;;;;760621;183;873834;-57
2022/09/24 13:39:19;;;;;;;3.80;3.07;;;;;;;;;;759962;184;857053;-56
2022/09/24 13:41:53;;;;;;;4.77;3.60;;;;;;;;;;754007;183;919241;-58
2022/09/24 13:44:21;;;;;;;3.70;3.00;;;;;;;;;;754976;184;917619;-57
2022/09/24 13:46:47;;;;;;;4.53;3.50;;;;;;;;;;756011;183;918919;-58
2022/09/24 13:49:15;;;;;;;4.77;3.50;;;;;;;;;;764666;182;1124691;-58
2022/09/24 13:51:39;;;;;;;8.27;4.35;;;;;;;;;;754248;183;919299;-56
2022/09/24 13:54:05;;;;;;;6.17;4.30;;;;;;;;;;755454;183;925779;-58
2022/09/24 13:56:31;;;;;;;5.00;3.20;;;;;;;;;;760946;183;1129807;-57
2022/09/24 13:59:01;;;;;;;6.00;3.20;;;;;;;;;;758040;183;917305;-57
2022/09/24 14:01:28;;;;;;;8.67;3.43;;;;;;;;;;755792;183;918815;-57
2022/09/24 14:03:54;;;;;;;4.40;3.13;;;;;;;;;;759485;183;922331;-58
2022/09/24 14:06:21;;;;;;;8.13;3.30;;;;;;;;;;772610;180;816307;-57
2022/09/24 14:08:46;;;;;;;6.30;3.60;;;;;;;;;;770016;179;816711;-58
2022/09/24 14:11:15;;;;;;;10.10;3.70;;;;;;;;;;761134;183;920838;-58
2022/09/24 14:13:44;;;;;;;4.20;3.03;;;;;;;;;;764596;183;780877;-58
2022/09/24 14:16:07;;;;;;;6.37;3.90;;;;;;;;;;757982;181;917016;-58
2022/09/24 14:18:33;;;;;;;4.40;3.63;;;;;;;;;;756947;183;816985;-58
2022/09/24 14:20:58;;;;;;;3.90;2.90;;;;;;;;;;762416;183;919077;-58
2022/09/24 14:23:25;;;;;;;5.67;3.80;;;;;;;;;;754977;183;920341;-58
2022/09/24 14:25:51;;;;;;;4.30;3.07;;;;;;;;;;754107;183;918739;-58
2022/09/24 14:28:17;;;;;;;7.63;3.90;;;;;;;;;;757407;183;919404;-58